sensor_id;sensor_type;location;lat;lon;timestamp;P1;durP1;ratioP1;P2;durP2;ratioP2
9234;SDS011;4652;42.716;23.218;2022-11-20T00:06:14;4.20;;;1.80;;
9234;SDS011;4652;42.716;23.218;2022-11-20T00:12:57;1.10;;;1.00;;
9234;SDS011;4652;42.716;23.218;2022-11-20T00:19:39;3.77;;;1.67;;
9234;SDS011;4652;42.716;23.218;2022-11-20T00:26:23;1.70;;;1.23;;
9234;SDS011;4652;42.716;23.218;2022-11-20T00:33:06;1.60;;;1.10;;
9234;SDS011;4652;42.716;23.218;2022-11-20T00:39:48;2.27;;;1.03;;
9234;SDS011;4652;42.716;23.218;2022-11-20T00:46:32;4.27;;;1.20;;
9234;SDS011;4652;42.716;23.218;2022-11-20T00:53:14;2.23;;;1.50;;
9234;SDS011;4652;42.716;23.218;2022-11-20T00:59:56;2.77;;;1.70;;
9234;SDS011;4652;42.716;23.218;2022-11-20T01:06:40;3.70;;;1.57;;
9234;SDS011;4652;42.716;23.218;2022-11-20T01:13:22;3.97;;;1.60;;
9234;SDS011;4652;42.716;23.218;2022-11-20T01:20:21;3.30;;;1.60;;
9234;SDS011;4652;42.716;23.218;2022-11-20T01:27:04;4.00;;;2.00;;
9234;SDS011;4652;42.716;23.218;2022-11-20T01:33:47;3.67;;;1.40;;
9234;SDS011;4652;42.716;23.218;2022-11-20T01:40:30;3.77;;;1.43;;
9234;SDS011;4652;42.716;23.218;2022-11-20T01:47:15;3.67;;;1.57;;
9234;SDS011;4652;42.716;23.218;2022-11-20T01:53:59;3.93;;;2.20;;
9234;SDS011;4652;42.716;23.218;2022-11-20T05:04:16;1.97;;;1.10;;
9234;SDS011;4652;42.716;23.218;2022-11-20T08:24:18;4.50;;;1.73;;
9234;SDS011;4652;42.716;23.218;2022-11-20T08:31:01;8.77;;;2.43;;
9234;SDS011;4652;42.716;23.218;2022-11-20T08:37:45;7.53;;;2.70;;
9234;SDS011;4652;42.716;23.218;2022-11-20T08:44:30;9.10;;;3.17;;
9234;SDS011;4652;42.716;23.218;2022-11-20T08:51:12;6.50;;;2.30;;
9234;SDS011;4652;42.716;23.218;2022-11-20T08:57:55;5.23;;;2.73;;
9234;SDS011;4652;42.716;23.218;2022-11-20T09:04:39;5.20;;;1.80;;
9234;SDS011;4652;42.716;23.218;2022-11-20T09:11:21;7.90;;;2.30;;
9234;SDS011;4652;42.716;23.218;2022-11-20T09:18:03;6.30;;;2.47;;
9234;SDS011;4652;42.716;23.218;2022-11-20T09:24:47;6.43;;;2.40;;
9234;SDS011;4652;42.716;23.218;2022-11-20T09:31:29;8.10;;;2.03;;
9234;SDS011;4652;42.716;23.218;2022-11-20T09:38:11;3.20;;;1.60;;
9234;SDS011;4652;42.716;23.218;2022-11-20T09:45:04;6.13;;;1.53;;
9234;SDS011;4652;42.716;23.218;2022-11-20T09:51:57;3.07;;;1.30;;
9234;SDS011;4652;42.716;23.218;2022-11-20T09:58:41;5.10;;;1.93;;
9234;SDS011;4652;42.716;23.218;2022-11-20T10:05:28;5.13;;;2.80;;
9234;SDS011;4652;42.716;23.218;2022-11-20T10:12:17;7.60;;;3.20;;
9234;SDS011;4652;42.716;23.218;2022-11-20T10:19:10;7.87;;;3.50;;
9234;SDS011;4652;42.716;23.218;2022-11-20T10:26:06;8.50;;;3.73;;
9234;SDS011;4652;42.716;23.218;2022-11-20T10:33:00;7.67;;;3.83;;
9234;SDS011;4652;42.716;23.218;2022-11-20T10:39:49;11.20;;;4.00;;
9234;SDS011;4652;42.716;23.218;2022-11-20T10:46:38;10.73;;;2.77;;
9234;SDS011;4652;42.716;23.218;2022-11-20T10:53:33;3.80;;;1.10;;
9234;SDS011;4652;42.716;23.218;2022-11-20T11:00:25;4.90;;;1.07;;
9234;SDS011;4652;42.716;23.218;2022-11-20T11:19:35;3.57;;;0.57;;
9234;SDS011;4652;42.716;23.218;2022-11-20T11:26:18;3.23;;;0.80;;
9234;SDS011;4652;42.716;23.218;2022-11-20T11:33:03;1.37;;;0.60;;
9234;SDS011;4652;42.716;23.218;2022-11-20T11:39:48;1.57;;;0.40;;
9234;SDS011;4652;42.716;23.218;2022-11-20T11:46:32;1.33;;;0.50;;
9234;SDS011;4652;42.716;23.218;2022-11-20T11:53:17;1.03;;;0.30;;
9234;SDS011;4652;42.716;23.218;2022-11-20T12:00:03;1.60;;;0.57;;
9234;SDS011;4652;42.716;23.218;2022-11-20T12:06:50;1.43;;;0.70;;
9234;SDS011;4652;42.716;23.218;2022-11-20T12:13:41;3.23;;;0.80;;
9234;SDS011;4652;42.716;23.218;2022-11-20T12:20:31;1.60;;;0.80;;
9234;SDS011;4652;42.716;23.218;2022-11-20T12:27:31;1.87;;;0.70;;
9234;SDS011;4652;42.716;23.218;2022-11-20T12:57:46;4.70;;;2.70;;
9234;SDS011;4652;42.716;23.218;2022-11-20T13:04:40;3.10;;;1.80;;
9234;SDS011;4652;42.716;23.218;2022-11-20T13:11:45;4.40;;;1.80;;
9234;SDS011;4652;42.716;23.218;2022-11-20T13:18:36;10.90;;;9.63;;
9234;SDS011;4652;42.716;23.218;2022-11-20T13:25:23;4.87;;;1.70;;
9234;SDS011;4652;42.716;23.218;2022-11-20T13:32:06;6.03;;;2.40;;
9234;SDS011;4652;42.716;23.218;2022-11-20T13:38:58;20.50;;;12.57;;
9234;SDS011;4652;42.716;23.218;2022-11-20T13:45:41;13.97;;;9.27;;
9234;SDS011;4652;42.716;23.218;2022-11-20T13:59:39;13.10;;;4.83;;
9234;SDS011;4652;42.716;23.218;2022-11-20T14:35:25;11.83;;;10.63;;
9234;SDS011;4652;42.716;23.218;2022-11-20T16:15:59;12.23;;;7.83;;
9234;SDS011;4652;42.716;23.218;2022-11-20T16:22:45;13.67;;;11.40;;
9234;SDS011;4652;42.716;23.218;2022-11-20T16:29:28;10.10;;;8.43;;
9234;SDS011;4652;42.716;23.218;2022-11-20T16:36:12;19.93;;;15.70;;
9234;SDS011;4652;42.716;23.218;2022-11-20T16:42:55;36.03;;;29.33;;
9234;SDS011;4652;42.716;23.218;2022-11-20T16:49:37;36.23;;;26.53;;
9234;SDS011;4652;42.716;23.218;2022-11-20T16:56:21;27.20;;;19.83;;
9234;SDS011;4652;42.716;23.218;2022-11-20T17:03:04;17.47;;;12.20;;
9234;SDS011;4652;42.716;23.218;2022-11-20T17:09:47;8.47;;;4.90;;
9234;SDS011;4652;42.716;23.218;2022-11-20T17:16:30;3.53;;;2.97;;
9234;SDS011;4652;42.716;23.218;2022-11-20T17:23:12;5.10;;;4.60;;
9234;SDS011;4652;42.716;23.218;2022-11-20T17:29:54;9.07;;;7.00;;
9234;SDS011;4652;42.716;23.218;2022-11-20T17:36:40;5.20;;;4.10;;
9234;SDS011;4652;42.716;23.218;2022-11-20T17:43:24;11.50;;;10.30;;
9234;SDS011;4652;42.716;23.218;2022-11-20T17:50:06;15.77;;;13.93;;
9234;SDS011;4652;42.716;23.218;2022-11-20T17:56:50;22.50;;;19.47;;
9234;SDS011;4652;42.716;23.218;2022-11-20T18:03:49;31.03;;;27.63;;
9234;SDS011;4652;42.716;23.218;2022-11-20T18:10:32;25.37;;;21.47;;
9234;SDS011;4652;42.716;23.218;2022-11-20T18:17:16;16.83;;;13.27;;
9234;SDS011;4652;42.716;23.218;2022-11-20T18:23:58;15.20;;;12.70;;
9234;SDS011;4652;42.716;23.218;2022-11-20T18:30:40;11.57;;;9.67;;
9234;SDS011;4652;42.716;23.218;2022-11-20T18:37:24;10.00;;;8.33;;
9234;SDS011;4652;42.716;23.218;2022-11-20T18:44:10;11.70;;;9.53;;
9234;SDS011;4652;42.716;23.218;2022-11-20T18:51:11;11.80;;;9.20;;
9234;SDS011;4652;42.716;23.218;2022-11-20T18:57:56;10.23;;;7.97;;
9234;SDS011;4652;42.716;23.218;2022-11-20T19:04:38;10.33;;;7.80;;
9234;SDS011;4652;42.716;23.218;2022-11-20T19:11:20;11.20;;;6.73;;
9234;SDS011;4652;42.716;23.218;2022-11-20T19:18:04;9.07;;;6.67;;
9234;SDS011;4652;42.716;23.218;2022-11-20T19:24:47;23.77;;;12.43;;
9234;SDS011;4652;42.716;23.218;2022-11-20T19:31:29;5.70;;;4.47;;
9234;SDS011;4652;42.716;23.218;2022-11-20T19:38:16;19.93;;;10.17;;
9234;SDS011;4652;42.716;23.218;2022-11-20T19:44:58;5.57;;;3.87;;
9234;SDS011;4652;42.716;23.218;2022-11-20T19:51:43;8.63;;;5.10;;
9234;SDS011;4652;42.716;23.218;2022-11-20T19:58:32;2.93;;;2.10;;
9234;SDS011;4652;42.716;23.218;2022-11-20T20:08:08;17.07;;;11.67;;
9234;SDS011;4652;42.716;23.218;2022-11-20T20:14:50;14.00;;;11.20;;
9234;SDS011;4652;42.716;23.218;2022-11-20T20:21:33;20.87;;;14.27;;
9234;SDS011;4652;42.716;23.218;2022-11-20T20:28:17;34.03;;;21.63;;
9234;SDS011;4652;42.716;23.218;2022-11-20T20:35:00;24.23;;;18.23;;
9234;SDS011;4652;42.716;23.218;2022-11-20T20:41:42;22.70;;;15.87;;
9234;SDS011;4652;42.716;23.218;2022-11-20T20:48:25;14.07;;;10.40;;
9234;SDS011;4652;42.716;23.218;2022-11-20T20:55:08;18.70;;;15.07;;
9234;SDS011;4652;42.716;23.218;2022-11-20T21:01:51;16.63;;;14.60;;
9234;SDS011;4652;42.716;23.218;2022-11-20T21:08:34;18.10;;;15.27;;
9234;SDS011;4652;42.716;23.218;2022-11-20T21:15:16;19.30;;;16.63;;
9234;SDS011;4652;42.716;23.218;2022-11-20T21:21:59;24.00;;;19.33;;
9234;SDS011;4652;42.716;23.218;2022-11-20T21:28:43;22.60;;;17.13;;
9234;SDS011;4652;42.716;23.218;2022-11-20T21:35:26;9.73;;;7.50;;
9234;SDS011;4652;42.716;23.218;2022-11-20T21:42:09;8.50;;;7.13;;
9234;SDS011;4652;42.716;23.218;2022-11-20T21:48:52;8.37;;;6.50;;
9234;SDS011;4652;42.716;23.218;2022-11-20T21:55:34;10.60;;;9.00;;
9234;SDS011;4652;42.716;23.218;2022-11-20T22:02:16;19.93;;;16.87;;
9234;SDS011;4652;42.716;23.218;2022-11-20T22:09:00;15.03;;;12.97;;
9234;SDS011;4652;42.716;23.218;2022-11-20T22:15:42;15.00;;;11.37;;
9234;SDS011;4652;42.716;23.218;2022-11-20T22:22:25;13.47;;;10.97;;
9234;SDS011;4652;42.716;23.218;2022-11-20T22:29:09;8.07;;;6.90;;
9234;SDS011;4652;42.716;23.218;2022-11-20T22:36:01;5.27;;;4.63;;
9234;SDS011;4652;42.716;23.218;2022-11-20T22:42:44;4.43;;;4.03;;
9234;SDS011;4652;42.716;23.218;2022-11-20T22:49:28;4.73;;;4.23;;
9234;SDS011;4652;42.716;23.218;2022-11-20T22:56:10;6.93;;;5.87;;
9234;SDS011;4652;42.716;23.218;2022-11-20T23:02:54;8.60;;;7.70;;
9234;SDS011;4652;42.716;23.218;2022-11-20T23:09:37;8.87;;;7.60;;
9234;SDS011;4652;42.716;23.218;2022-11-20T23:16:19;11.50;;;9.43;;
9234;SDS011;4652;42.716;23.218;2022-11-20T23:23:01;12.90;;;10.10;;
9234;SDS011;4652;42.716;23.218;2022-11-20T23:29:46;12.00;;;10.80;;
9234;SDS011;4652;42.716;23.218;2022-11-20T23:36:28;20.00;;;16.73;;
9234;SDS011;4652;42.716;23.218;2022-11-20T23:43:11;14.30;;;11.47;;
9234;SDS011;4652;42.716;23.218;2022-11-20T23:49:57;12.33;;;10.87;;
9234;SDS011;4652;42.716;23.218;2022-11-20T23:56:39;11.80;;;10.43;;
